sensor_id;sensor_type;location;lat;lon;timestamp;P1;durP1;ratioP1;P2;durP2;ratioP2
10645;SDS011;5371;49.782;9.932;2023-03-15T00:00:42;3.53;;;1.50;;
10645;SDS011;5371;49.782;9.932;2023-03-15T00:03:09;5.60;;;1.60;;
10645;SDS011;5371;49.782;9.932;2023-03-15T00:05:40;4.17;;;1.40;;
10645;SDS011;5371;49.782;9.932;2023-03-15T00:08:07;5.93;;;1.67;;
10645;SDS011;5371;49.782;9.932;2023-03-15T00:10:38;4.13;;;1.70;;
10645;SDS011;5371;49.782;9.932;2023-03-15T00:13:06;2.93;;;1.63;;
10645;SDS011;5371;49.782;9.932;2023-03-15T00:15:33;5.23;;;1.87;;
10645;SDS011;5371;49.782;9.932;2023-03-15T00:18:02;6.47;;;1.83;;
10645;SDS011;5371;49.782;9.932;2023-03-15T00:20:29;4.63;;;1.90;;
10645;SDS011;5371;49.782;9.932;2023-03-15T00:22:56;7.00;;;2.20;;
10645;SDS011;5371;49.782;9.932;2023-03-15T00:25:23;4.60;;;1.90;;
10645;SDS011;5371;49.782;9.932;2023-03-15T00:27:50;5.47;;;2.20;;
10645;SDS011;5371;49.782;9.932;2023-03-15T00:30:17;7.47;;;2.20;;
10645;SDS011;5371;49.782;9.932;2023-03-15T00:32:44;5.47;;;2.10;;
10645;SDS011;5371;49.782;9.932;2023-03-15T00:35:12;4.27;;;1.80;;
10645;SDS011;5371;49.782;9.932;2023-03-15T00:37:42;4.77;;;2.07;;
10645;SDS011;5371;49.782;9.932;2023-03-15T00:40:10;4.97;;;2.10;;
10645;SDS011;5371;49.782;9.932;2023-03-15T00:42:37;4.80;;;2.00;;
10645;SDS011;5371;49.782;9.932;2023-03-15T00:45:05;4.47;;;2.30;;
10645;SDS011;5371;49.782;9.932;2023-03-15T00:47:33;4.27;;;2.03;;
10645;SDS011;5371;49.782;9.932;2023-03-15T00:50:00;6.50;;;2.10;;
10645;SDS011;5371;49.782;9.932;2023-03-15T00:52:31;6.07;;;2.23;;
10645;SDS011;5371;49.782;9.932;2023-03-15T00:55:00;4.63;;;2.10;;
10645;SDS011;5371;49.782;9.932;2023-03-15T00:57:27;3.90;;;2.03;;
10645;SDS011;5371;49.782;9.932;2023-03-15T00:59:54;3.33;;;2.00;;
10645;SDS011;5371;49.782;9.932;2023-03-15T01:02:21;5.03;;;2.00;;
10645;SDS011;5371;49.782;9.932;2023-03-15T01:04:48;7.23;;;2.37;;
10645;SDS011;5371;49.782;9.932;2023-03-15T01:07:15;6.07;;;2.03;;
10645;SDS011;5371;49.782;9.932;2023-03-15T01:09:44;5.10;;;2.27;;
10645;SDS011;5371;49.782;9.932;2023-03-15T01:12:11;4.57;;;2.20;;
10645;SDS011;5371;49.782;9.932;2023-03-15T01:14:38;6.33;;;2.50;;
10645;SDS011;5371;49.782;9.932;2023-03-15T01:17:05;4.60;;;2.10;;
10645;SDS011;5371;49.782;9.932;2023-03-15T01:19:34;5.97;;;2.33;;
10645;SDS011;5371;49.782;9.932;2023-03-15T01:22:01;4.33;;;2.33;;
10645;SDS011;5371;49.782;9.932;2023-03-15T01:24:27;5.17;;;2.30;;
10645;SDS011;5371;49.782;9.932;2023-03-15T01:26:56;6.43;;;2.80;;
10645;SDS011;5371;49.782;9.932;2023-03-15T01:29:23;6.10;;;2.63;;
10645;SDS011;5371;49.782;9.932;2023-03-15T01:31:50;7.33;;;2.77;;
10645;SDS011;5371;49.782;9.932;2023-03-15T01:34:17;7.90;;;2.83;;
10645;SDS011;5371;49.782;9.932;2023-03-15T01:36:43;7.50;;;2.80;;
10645;SDS011;5371;49.782;9.932;2023-03-15T01:39:10;6.37;;;2.83;;
10645;SDS011;5371;49.782;9.932;2023-03-15T01:41:40;4.43;;;2.90;;
10645;SDS011;5371;49.782;9.932;2023-03-15T01:44:11;6.93;;;3.20;;
10645;SDS011;5371;49.782;9.932;2023-03-15T01:46:39;8.77;;;2.50;;
10645;SDS011;5371;49.782;9.932;2023-03-15T01:49:24;5.43;;;3.00;;
10645;SDS011;5371;49.782;9.932;2023-03-15T01:51:57;5.60;;;2.97;;
10645;SDS011;5371;49.782;9.932;2023-03-15T01:54:48;6.67;;;3.00;;
10645;SDS011;5371;49.782;9.932;2023-03-15T01:57:21;5.07;;;3.13;;
10645;SDS011;5371;49.782;9.932;2023-03-15T01:59:53;6.17;;;3.40;;
10645;SDS011;5371;49.782;9.932;2023-03-15T02:02:23;8.83;;;3.40;;
10645;SDS011;5371;49.782;9.932;2023-03-15T02:04:51;5.23;;;3.23;;
10645;SDS011;5371;49.782;9.932;2023-03-15T02:07:23;5.20;;;3.30;;
10645;SDS011;5371;49.782;9.932;2023-03-15T02:09:54;5.73;;;3.50;;
10645;SDS011;5371;49.782;9.932;2023-03-15T02:12:27;7.90;;;3.93;;
10645;SDS011;5371;49.782;9.932;2023-03-15T02:14:58;8.80;;;4.20;;
10645;SDS011;5371;49.782;9.932;2023-03-15T02:17:33;10.03;;;4.50;;
10645;SDS011;5371;49.782;9.932;2023-03-15T02:20:04;10.03;;;4.33;;
10645;SDS011;5371;49.782;9.932;2023-03-15T02:22:42;7.67;;;4.03;;
10645;SDS011;5371;49.782;9.932;2023-03-15T02:25:17;8.07;;;4.23;;
10645;SDS011;5371;49.782;9.932;2023-03-15T02:27:54;9.67;;;4.37;;
10645;SDS011;5371;49.782;9.932;2023-03-15T02:30:22;7.03;;;4.30;;
10645;SDS011;5371;49.782;9.932;2023-03-15T02:32:49;10.77;;;5.10;;
10645;SDS011;5371;49.782;9.932;2023-03-15T02:35:23;10.40;;;4.90;;
10645;SDS011;5371;49.782;9.932;2023-03-15T02:37:51;8.67;;;5.00;;
10645;SDS011;5371;49.782;9.932;2023-03-15T02:40:19;10.97;;;5.23;;
10645;SDS011;5371;49.782;9.932;2023-03-15T02:42:50;10.30;;;5.20;;
10645;SDS011;5371;49.782;9.932;2023-03-15T02:45:24;10.13;;;5.23;;
10645;SDS011;5371;49.782;9.932;2023-03-15T02:47:52;11.83;;;5.50;;
10645;SDS011;5371;49.782;9.932;2023-03-15T02:50:20;12.03;;;5.37;;
10645;SDS011;5371;49.782;9.932;2023-03-15T02:52:47;12.83;;;5.10;;
10645;SDS011;5371;49.782;9.932;2023-03-15T02:55:17;10.97;;;5.30;;
10645;SDS011;5371;49.782;9.932;2023-03-15T02:57:46;12.00;;;5.60;;
10645;SDS011;5371;49.782;9.932;2023-03-15T03:00:14;10.33;;;5.50;;
10645;SDS011;5371;49.782;9.932;2023-03-15T03:02:45;14.10;;;5.57;;
10645;SDS011;5371;49.782;9.932;2023-03-15T03:05:13;8.40;;;4.60;;
10645;SDS011;5371;49.782;9.932;2023-03-15T03:07:41;13.20;;;5.17;;
10645;SDS011;5371;49.782;9.932;2023-03-15T03:10:10;10.53;;;5.53;;
10645;SDS011;5371;49.782;9.932;2023-03-15T03:12:46;9.90;;;5.07;;
10645;SDS011;5371;49.782;9.932;2023-03-15T03:15:18;10.80;;;4.80;;
10645;SDS011;5371;49.782;9.932;2023-03-15T03:17:47;11.97;;;4.73;;
10645;SDS011;5371;49.782;9.932;2023-03-15T03:20:14;14.27;;;5.40;;
10645;SDS011;5371;49.782;9.932;2023-03-15T03:22:44;11.13;;;5.03;;
10645;SDS011;5371;49.782;9.932;2023-03-15T03:25:12;10.10;;;4.80;;
10645;SDS011;5371;49.782;9.932;2023-03-15T03:27:39;9.73;;;4.63;;
10645;SDS011;5371;49.782;9.932;2023-03-15T03:30:09;8.50;;;4.33;;
10645;SDS011;5371;49.782;9.932;2023-03-15T03:32:41;11.40;;;4.63;;
10645;SDS011;5371;49.782;9.932;2023-03-15T03:35:10;10.27;;;4.67;;
10645;SDS011;5371;49.782;9.932;2023-03-15T03:37:37;9.00;;;4.30;;
10645;SDS011;5371;49.782;9.932;2023-03-15T03:40:11;8.77;;;4.03;;
10645;SDS011;5371;49.782;9.932;2023-03-15T03:42:38;11.63;;;4.13;;
10645;SDS011;5371;49.782;9.932;2023-03-15T03:45:06;12.50;;;4.10;;
10645;SDS011;5371;49.782;9.932;2023-03-15T03:47:38;11.07;;;4.00;;
10645;SDS011;5371;49.782;9.932;2023-03-15T03:50:07;9.50;;;3.60;;
10645;SDS011;5371;49.782;9.932;2023-03-15T03:52:36;6.93;;;3.47;;
10645;SDS011;5371;49.782;9.932;2023-03-15T03:55:10;9.23;;;3.80;;
10645;SDS011;5371;49.782;9.932;2023-03-15T03:57:38;13.57;;;4.00;;
10645;SDS011;5371;49.782;9.932;2023-03-15T04:00:08;8.80;;;3.53;;
10645;SDS011;5371;49.782;9.932;2023-03-15T04:02:40;9.73;;;3.30;;
10645;SDS011;5371;49.782;9.932;2023-03-15T04:05:08;8.00;;;3.10;;
10645;SDS011;5371;49.782;9.932;2023-03-15T04:07:37;8.30;;;3.40;;
10645;SDS011;5371;49.782;9.932;2023-03-15T04:10:05;9.63;;;3.80;;
10645;SDS011;5371;49.782;9.932;2023-03-15T04:12:34;8.73;;;3.50;;
10645;SDS011;5371;49.782;9.932;2023-03-15T04:15:01;11.23;;;3.40;;
10645;SDS011;5371;49.782;9.932;2023-03-15T04:17:31;9.17;;;2.97;;
10645;SDS011;5371;49.782;9.932;2023-03-15T04:19:58;7.77;;;2.83;;
10645;SDS011;5371;49.782;9.932;2023-03-15T04:22:30;10.40;;;2.80;;
10645;SDS011;5371;49.782;9.932;2023-03-15T04:25:18;7.90;;;3.03;;
10645;SDS011;5371;49.782;9.932;2023-03-15T04:27:52;10.00;;;3.00;;
10645;SDS011;5371;49.782;9.932;2023-03-15T04:30:42;9.77;;;3.33;;
10645;SDS011;5371;49.782;9.932;2023-03-15T04:33:39;9.60;;;2.97;;
10645;SDS011;5371;49.782;9.932;2023-03-15T04:36:44;7.33;;;2.73;;
10645;SDS011;5371;49.782;9.932;2023-03-15T04:39:18;9.33;;;3.10;;
10645;SDS011;5371;49.782;9.932;2023-03-15T04:42:13;7.00;;;2.90;;
10645;SDS011;5371;49.782;9.932;2023-03-15T04:44:59;8.63;;;3.50;;
10645;SDS011;5371;49.782;9.932;2023-03-15T04:47:34;9.87;;;2.70;;
10645;SDS011;5371;49.782;9.932;2023-03-15T04:50:21;8.33;;;2.70;;
10645;SDS011;5371;49.782;9.932;2023-03-15T04:52:58;10.73;;;2.90;;
10645;SDS011;5371;49.782;9.932;2023-03-15T04:55:44;7.93;;;2.53;;
10645;SDS011;5371;49.782;9.932;2023-03-15T04:58:31;6.20;;;2.70;;
10645;SDS011;5371;49.782;9.932;2023-03-15T05:01:05;7.67;;;2.90;;
10645;SDS011;5371;49.782;9.932;2023-03-15T05:03:46;9.23;;;2.87;;
10645;SDS011;5371;49.782;9.932;2023-03-15T05:06:31;7.33;;;3.00;;
10645;SDS011;5371;49.782;9.932;2023-03-15T05:09:28;8.00;;;2.63;;
10645;SDS011;5371;49.782;9.932;2023-03-15T05:12:22;8.67;;;3.07;;
10645;SDS011;5371;49.782;9.932;2023-03-15T05:14:59;8.13;;;2.63;;
10645;SDS011;5371;49.782;9.932;2023-03-15T05:17:29;6.83;;;2.87;;
10645;SDS011;5371;49.782;9.932;2023-03-15T05:20:29;7.33;;;3.10;;
10645;SDS011;5371;49.782;9.932;2023-03-15T05:23:12;6.20;;;2.77;;
10645;SDS011;5371;49.782;9.932;2023-03-15T05:25:52;8.73;;;3.10;;
10645;SDS011;5371;49.782;9.932;2023-03-15T05:28:38;10.93;;;2.80;;
10645;SDS011;5371;49.782;9.932;2023-03-15T05:31:33;9.33;;;3.20;;
10645;SDS011;5371;49.782;9.932;2023-03-15T05:34:19;8.20;;;3.33;;
10645;SDS011;5371;49.782;9.932;2023-03-15T05:37:07;7.00;;;2.90;;
10645;SDS011;5371;49.782;9.932;2023-03-15T05:39:57;8.60;;;2.80;;
10645;SDS011;5371;49.782;9.932;2023-03-15T05:42:43;8.87;;;3.20;;
10645;SDS011;5371;49.782;9.932;2023-03-15T05:45:13;7.50;;;3.20;;
10645;SDS011;5371;49.782;9.932;2023-03-15T05:48:07;8.83;;;3.43;;
10645;SDS011;5371;49.782;9.932;2023-03-15T05:50:53;6.77;;;3.37;;
10645;SDS011;5371;49.782;9.932;2023-03-15T05:53:33;8.87;;;3.73;;
10645;SDS011;5371;49.782;9.932;2023-03-15T05:56:13;13.70;;;3.80;;
10645;SDS011;5371;49.782;9.932;2023-03-15T05:58:59;9.87;;;3.50;;
10645;SDS011;5371;49.782;9.932;2023-03-15T06:01:43;10.27;;;3.30;;
10645;SDS011;5371;49.782;9.932;2023-03-15T06:04:20;7.63;;;3.20;;
10645;SDS011;5371;49.782;9.932;2023-03-15T06:06:48;9.43;;;3.63;;
10645;SDS011;5371;49.782;9.932;2023-03-15T06:09:17;9.27;;;3.83;;
10645;SDS011;5371;49.782;9.932;2023-03-15T06:11:45;11.33;;;4.03;;
10645;SDS011;5371;49.782;9.932;2023-03-15T06:14:12;8.80;;;3.97;;
10645;SDS011;5371;49.782;9.932;2023-03-15T06:16:49;9.73;;;4.00;;
10645;SDS011;5371;49.782;9.932;2023-03-15T06:19:16;8.10;;;4.03;;
10645;SDS011;5371;49.782;9.932;2023-03-15T06:21:45;7.73;;;4.03;;
10645;SDS011;5371;49.782;9.932;2023-03-15T06:24:22;9.87;;;4.60;;
10645;SDS011;5371;49.782;9.932;2023-03-15T06:26:49;9.20;;;4.20;;
10645;SDS011;5371;49.782;9.932;2023-03-15T06:29:19;9.87;;;4.07;;
10645;SDS011;5371;49.782;9.932;2023-03-15T06:31:46;12.07;;;4.40;;
10645;SDS011;5371;49.782;9.932;2023-03-15T06:34:15;9.70;;;4.57;;
10645;SDS011;5371;49.782;9.932;2023-03-15T06:36:42;9.23;;;4.10;;
10645;SDS011;5371;49.782;9.932;2023-03-15T06:39:12;11.50;;;3.87;;
10645;SDS011;5371;49.782;9.932;2023-03-15T06:41:39;12.87;;;4.00;;
10645;SDS011;5371;49.782;9.932;2023-03-15T06:44:12;6.77;;;3.93;;
10645;SDS011;5371;49.782;9.932;2023-03-15T06:46:40;14.17;;;3.90;;
10645;SDS011;5371;49.782;9.932;2023-03-15T06:49:07;12.33;;;3.80;;
10645;SDS011;5371;49.782;9.932;2023-03-15T06:51:35;9.23;;;3.70;;
10645;SDS011;5371;49.782;9.932;2023-03-15T06:54:02;10.37;;;4.27;;
10645;SDS011;5371;49.782;9.932;2023-03-15T06:56:33;8.93;;;3.87;;
10645;SDS011;5371;49.782;9.932;2023-03-15T06:59:01;11.30;;;4.13;;
10645;SDS011;5371;49.782;9.932;2023-03-15T07:01:28;9.13;;;4.10;;
10645;SDS011;5371;49.782;9.932;2023-03-15T07:03:55;8.57;;;4.03;;
10645;SDS011;5371;49.782;9.932;2023-03-15T07:06:22;8.37;;;3.80;;
10645;SDS011;5371;49.782;9.932;2023-03-15T07:08:49;12.27;;;3.63;;
10645;SDS011;5371;49.782;9.932;2023-03-15T07:11:16;9.07;;;4.33;;
10645;SDS011;5371;49.782;9.932;2023-03-15T07:13:44;7.80;;;3.57;;
10645;SDS011;5371;49.782;9.932;2023-03-15T07:16:11;6.20;;;3.40;;
10645;SDS011;5371;49.782;9.932;2023-03-15T07:18:38;7.90;;;3.43;;
10645;SDS011;5371;49.782;9.932;2023-03-15T07:21:05;8.23;;;3.30;;
10645;SDS011;5371;49.782;9.932;2023-03-15T07:23:32;8.90;;;3.40;;
10645;SDS011;5371;49.782;9.932;2023-03-15T07:25:59;9.13;;;3.27;;
10645;SDS011;5371;49.782;9.932;2023-03-15T07:28:26;7.87;;;3.47;;
10645;SDS011;5371;49.782;9.932;2023-03-15T07:30:56;5.80;;;2.47;;
10645;SDS011;5371;49.782;9.932;2023-03-15T07:33:24;7.40;;;3.20;;
10645;SDS011;5371;49.782;9.932;2023-03-15T07:35:52;8.03;;;3.37;;
10645;SDS011;5371;49.782;9.932;2023-03-15T07:38:19;9.07;;;3.00;;
10645;SDS011;5371;49.782;9.932;2023-03-15T07:40:47;8.33;;;3.33;;
10645;SDS011;5371;49.782;9.932;2023-03-15T07:43:15;9.57;;;3.17;;
10645;SDS011;5371;49.782;9.932;2023-03-15T07:45:42;6.60;;;2.80;;
10645;SDS011;5371;49.782;9.932;2023-03-15T07:48:10;7.27;;;2.77;;
10645;SDS011;5371;49.782;9.932;2023-03-15T07:50:37;8.67;;;3.13;;
10645;SDS011;5371;49.782;9.932;2023-03-15T07:53:05;8.00;;;2.80;;
10645;SDS011;5371;49.782;9.932;2023-03-15T07:55:32;9.10;;;2.80;;
10645;SDS011;5371;49.782;9.932;2023-03-15T07:57:59;8.73;;;3.20;;
10645;SDS011;5371;49.782;9.932;2023-03-15T08:00:27;5.87;;;2.70;;
10645;SDS011;5371;49.782;9.932;2023-03-15T08:02:55;8.23;;;2.97;;
10645;SDS011;5371;49.782;9.932;2023-03-15T08:05:23;7.37;;;4.13;;
10645;SDS011;5371;49.782;9.932;2023-03-15T08:07:50;5.67;;;3.00;;
10645;SDS011;5371;49.782;9.932;2023-03-15T08:10:17;12.57;;;3.30;;
10645;SDS011;5371;49.782;9.932;2023-03-15T08:12:44;11.27;;;3.80;;
10645;SDS011;5371;49.782;9.932;2023-03-15T08:15:13;7.57;;;3.10;;
10645;SDS011;5371;49.782;9.932;2023-03-15T08:17:40;8.37;;;3.30;;
10645;SDS011;5371;49.782;9.932;2023-03-15T08:20:09;8.43;;;3.27;;
10645;SDS011;5371;49.782;9.932;2023-03-15T08:22:40;8.60;;;3.43;;
10645;SDS011;5371;49.782;9.932;2023-03-15T08:25:09;6.40;;;3.10;;
10645;SDS011;5371;49.782;9.932;2023-03-15T08:27:37;7.63;;;3.20;;
10645;SDS011;5371;49.782;9.932;2023-03-15T08:30:04;8.03;;;3.50;;
10645;SDS011;5371;49.782;9.932;2023-03-15T08:32:32;9.00;;;3.50;;
10645;SDS011;5371;49.782;9.932;2023-03-15T08:34:59;8.07;;;3.40;;
10645;SDS011;5371;49.782;9.932;2023-03-15T08:37:26;6.10;;;3.23;;
10645;SDS011;5371;49.782;9.932;2023-03-15T08:39:54;7.63;;;3.63;;
10645;SDS011;5371;49.782;9.932;2023-03-15T08:42:33;11.03;;;4.10;;
10645;SDS011;5371;49.782;9.932;2023-03-15T08:45:00;8.37;;;3.73;;
10645;SDS011;5371;49.782;9.932;2023-03-15T08:47:27;12.60;;;4.40;;
10645;SDS011;5371;49.782;9.932;2023-03-15T08:49:54;10.20;;;3.77;;
10645;SDS011;5371;49.782;9.932;2023-03-15T08:52:21;9.00;;;3.70;;
10645;SDS011;5371;49.782;9.932;2023-03-15T08:54:48;9.93;;;3.63;;
10645;SDS011;5371;49.782;9.932;2023-03-15T08:57:16;10.10;;;3.60;;
10645;SDS011;5371;49.782;9.932;2023-03-15T08:59:43;8.73;;;3.60;;
10645;SDS011;5371;49.782;9.932;2023-03-15T09:02:10;9.33;;;3.97;;
10645;SDS011;5371;49.782;9.932;2023-03-15T09:04:37;8.17;;;3.57;;
10645;SDS011;5371;49.782;9.932;2023-03-15T09:07:04;8.83;;;3.97;;
10645;SDS011;5371;49.782;9.932;2023-03-15T09:09:31;9.07;;;3.90;;
10645;SDS011;5371;49.782;9.932;2023-03-15T09:11:59;8.03;;;3.60;;
10645;SDS011;5371;49.782;9.932;2023-03-15T09:14:27;7.73;;;3.20;;
10645;SDS011;5371;49.782;9.932;2023-03-15T09:16:54;7.50;;;3.43;;
10645;SDS011;5371;49.782;9.932;2023-03-15T09:19:21;7.53;;;3.30;;
10645;SDS011;5371;49.782;9.932;2023-03-15T09:21:48;6.70;;;3.03;;
10645;SDS011;5371;49.782;9.932;2023-03-15T09:24:15;9.00;;;3.33;;
10645;SDS011;5371;49.782;9.932;2023-03-15T09:26:42;8.33;;;3.77;;
10645;SDS011;5371;49.782;9.932;2023-03-15T09:29:09;6.33;;;3.23;;
10645;SDS011;5371;49.782;9.932;2023-03-15T09:31:38;6.83;;;3.60;;
10645;SDS011;5371;49.782;9.932;2023-03-15T09:34:05;6.43;;;3.27;;
10645;SDS011;5371;49.782;9.932;2023-03-15T09:36:32;7.20;;;3.30;;
10645;SDS011;5371;49.782;9.932;2023-03-15T09:38:59;8.13;;;3.43;;
10645;SDS011;5371;49.782;9.932;2023-03-15T09:41:33;7.90;;;3.50;;
10645;SDS011;5371;49.782;9.932;2023-03-15T09:44:11;9.90;;;3.33;;
10645;SDS011;5371;49.782;9.932;2023-03-15T09:46:48;8.87;;;3.17;;
10645;SDS011;5371;49.782;9.932;2023-03-15T09:49:29;7.47;;;2.90;;
10645;SDS011;5371;49.782;9.932;2023-03-15T09:52:05;7.33;;;3.30;;
10645;SDS011;5371;49.782;9.932;2023-03-15T09:54:43;7.13;;;3.00;;
10645;SDS011;5371;49.782;9.932;2023-03-15T09:57:16;5.10;;;2.73;;
10645;SDS011;5371;49.782;9.932;2023-03-15T09:59:48;5.30;;;2.67;;
10645;SDS011;5371;49.782;9.932;2023-03-15T10:02:20;8.93;;;2.70;;
10645;SDS011;5371;49.782;9.932;2023-03-15T10:04:50;5.07;;;2.60;;
10645;SDS011;5371;49.782;9.932;2023-03-15T10:07:21;5.90;;;2.40;;
10645;SDS011;5371;49.782;9.932;2023-03-15T10:09:48;6.40;;;2.63;;
10645;SDS011;5371;49.782;9.932;2023-03-15T10:12:17;10.27;;;3.50;;
10645;SDS011;5371;49.782;9.932;2023-03-15T10:14:57;6.80;;;2.43;;
10645;SDS011;5371;49.782;9.932;2023-03-15T10:17:54;5.87;;;2.40;;
10645;SDS011;5371;49.782;9.932;2023-03-15T10:20:34;5.17;;;2.30;;
10645;SDS011;5371;49.782;9.932;2023-03-15T10:23:06;5.00;;;2.20;;
10645;SDS011;5371;49.782;9.932;2023-03-15T10:25:40;6.33;;;2.30;;
10645;SDS011;5371;49.782;9.932;2023-03-15T10:28:09;5.13;;;2.20;;
10645;SDS011;5371;49.782;9.932;2023-03-15T10:30:41;6.73;;;2.23;;
10645;SDS011;5371;49.782;9.932;2023-03-15T10:33:14;5.30;;;1.87;;
10645;SDS011;5371;49.782;9.932;2023-03-15T10:35:46;7.03;;;2.30;;
10645;SDS011;5371;49.782;9.932;2023-03-15T10:38:13;6.63;;;2.07;;
10645;SDS011;5371;49.782;9.932;2023-03-15T10:40:42;5.50;;;2.10;;
10645;SDS011;5371;49.782;9.932;2023-03-15T10:43:11;5.53;;;2.20;;
10645;SDS011;5371;49.782;9.932;2023-03-15T10:45:42;4.97;;;2.00;;
10645;SDS011;5371;49.782;9.932;2023-03-15T10:48:14;5.30;;;2.30;;
10645;SDS011;5371;49.782;9.932;2023-03-15T10:50:41;3.73;;;2.00;;
10645;SDS011;5371;49.782;9.932;2023-03-15T10:53:08;4.53;;;2.07;;
10645;SDS011;5371;49.782;9.932;2023-03-15T10:55:42;4.60;;;2.10;;
10645;SDS011;5371;49.782;9.932;2023-03-15T10:58:20;4.50;;;1.60;;
10645;SDS011;5371;49.782;9.932;2023-03-15T11:12:20;4.53;;;1.80;;
10645;SDS011;5371;49.782;9.932;2023-03-15T11:14:50;3.57;;;1.90;;
10645;SDS011;5371;49.782;9.932;2023-03-15T11:17:19;4.53;;;2.20;;
10645;SDS011;5371;49.782;9.932;2023-03-15T11:19:50;3.17;;;1.97;;
10645;SDS011;5371;49.782;9.932;2023-03-15T11:22:21;4.23;;;2.10;;
10645;SDS011;5371;49.782;9.932;2023-03-15T11:24:50;4.40;;;2.27;;
10645;SDS011;5371;49.782;9.932;2023-03-15T11:27:20;6.83;;;2.00;;
10645;SDS011;5371;49.782;9.932;2023-03-15T11:29:49;5.83;;;2.10;;
10645;SDS011;5371;49.782;9.932;2023-03-15T11:32:18;4.53;;;2.07;;
10645;SDS011;5371;49.782;9.932;2023-03-15T11:34:47;5.87;;;2.50;;
10645;SDS011;5371;49.782;9.932;2023-03-15T11:37:21;6.67;;;2.20;;
10645;SDS011;5371;49.782;9.932;2023-03-15T11:39:54;4.97;;;2.20;;
10645;SDS011;5371;49.782;9.932;2023-03-15T11:42:27;4.30;;;2.13;;
10645;SDS011;5371;49.782;9.932;2023-03-15T11:44:59;4.43;;;2.20;;
10645;SDS011;5371;49.782;9.932;2023-03-15T11:47:40;5.43;;;2.37;;
10645;SDS011;5371;49.782;9.932;2023-03-15T11:50:13;6.03;;;2.40;;
10645;SDS011;5371;49.782;9.932;2023-03-15T11:52:41;4.07;;;2.10;;
10645;SDS011;5371;49.782;9.932;2023-03-15T11:55:16;3.67;;;2.13;;
10645;SDS011;5371;49.782;9.932;2023-03-15T11:57:46;3.63;;;2.53;;
10645;SDS011;5371;49.782;9.932;2023-03-15T12:03:23;3.60;;;2.47;;
10645;SDS011;5371;49.782;9.932;2023-03-15T12:09:02;3.07;;;2.40;;
10645;SDS011;5371;49.782;9.932;2023-03-15T12:12:33;4.90;;;2.70;;
10645;SDS011;5371;49.782;9.932;2023-03-15T12:15:03;6.27;;;2.53;;
10645;SDS011;5371;49.782;9.932;2023-03-15T12:17:37;3.87;;;2.53;;
10645;SDS011;5371;49.782;9.932;2023-03-15T12:20:15;3.50;;;2.83;;
10645;SDS011;5371;49.782;9.932;2023-03-15T12:22:47;2.57;;;2.30;;
10645;SDS011;5371;49.782;9.932;2023-03-15T12:25:18;3.53;;;2.23;;
10645;SDS011;5371;49.782;9.932;2023-03-15T12:27:48;3.77;;;2.50;;
10645;SDS011;5371;49.782;9.932;2023-03-15T12:30:20;2.97;;;2.40;;
10645;SDS011;5371;49.782;9.932;2023-03-15T12:32:50;3.57;;;2.50;;
10645;SDS011;5371;49.782;9.932;2023-03-15T12:35:20;3.03;;;2.57;;
10645;SDS011;5371;49.782;9.932;2023-03-15T12:37:50;4.03;;;2.80;;
10645;SDS011;5371;49.782;9.932;2023-03-15T12:40:33;2.47;;;2.20;;
10645;SDS011;5371;49.782;9.932;2023-03-15T12:43:04;3.03;;;2.33;;
10645;SDS011;5371;49.782;9.932;2023-03-15T12:45:40;2.73;;;2.30;;
10645;SDS011;5371;49.782;9.932;2023-03-15T12:48:17;2.93;;;2.40;;
10645;SDS011;5371;49.782;9.932;2023-03-15T12:50:50;3.60;;;2.53;;
10645;SDS011;5371;49.782;9.932;2023-03-15T12:53:20;2.77;;;2.57;;
10645;SDS011;5371;49.782;9.932;2023-03-15T12:55:53;2.60;;;2.40;;
10645;SDS011;5371;49.782;9.932;2023-03-15T12:58:26;2.70;;;2.33;;
10645;SDS011;5371;49.782;9.932;2023-03-15T13:00:59;4.20;;;2.57;;
10645;SDS011;5371;49.782;9.932;2023-03-15T13:03:29;3.97;;;2.50;;
10645;SDS011;5371;49.782;9.932;2023-03-15T13:06:02;4.13;;;2.50;;
10645;SDS011;5371;49.782;9.932;2023-03-15T13:08:35;4.00;;;2.70;;
10645;SDS011;5371;49.782;9.932;2023-03-15T13:11:11;3.67;;;2.57;;
10645;SDS011;5371;49.782;9.932;2023-03-15T13:13:53;3.63;;;2.87;;
10645;SDS011;5371;49.782;9.932;2023-03-15T13:16:31;3.87;;;2.77;;
10645;SDS011;5371;49.782;9.932;2023-03-15T13:19:05;3.93;;;2.70;;
10645;SDS011;5371;49.782;9.932;2023-03-15T13:21:47;3.53;;;2.53;;
10645;SDS011;5371;49.782;9.932;2023-03-15T13:24:28;2.90;;;2.60;;
10645;SDS011;5371;49.782;9.932;2023-03-15T13:27:05;3.63;;;2.60;;
10645;SDS011;5371;49.782;9.932;2023-03-15T13:29:43;3.87;;;2.40;;
10645;SDS011;5371;49.782;9.932;2023-03-15T13:32:13;2.83;;;2.23;;
10645;SDS011;5371;49.782;9.932;2023-03-15T13:34:42;4.77;;;2.87;;
10645;SDS011;5371;49.782;9.932;2023-03-15T13:37:12;3.60;;;2.90;;
10645;SDS011;5371;49.782;9.932;2023-03-15T13:39:51;2.93;;;2.60;;
10645;SDS011;5371;49.782;9.932;2023-03-15T13:42:20;3.53;;;2.70;;
10645;SDS011;5371;49.782;9.932;2023-03-15T13:45:01;3.33;;;2.33;;
10645;SDS011;5371;49.782;9.932;2023-03-15T13:47:31;3.20;;;2.30;;
10645;SDS011;5371;49.782;9.932;2023-03-15T13:50:01;3.00;;;2.50;;
10645;SDS011;5371;49.782;9.932;2023-03-15T13:52:30;3.17;;;2.60;;
10645;SDS011;5371;49.782;9.932;2023-03-15T13:54:57;3.60;;;2.40;;
10645;SDS011;5371;49.782;9.932;2023-03-15T13:57:25;3.60;;;2.93;;
10645;SDS011;5371;49.782;9.932;2023-03-15T13:59:55;3.47;;;2.70;;
10645;SDS011;5371;49.782;9.932;2023-03-15T14:02:27;4.50;;;2.40;;
10645;SDS011;5371;49.782;9.932;2023-03-15T14:05:04;4.10;;;3.00;;
10645;SDS011;5371;49.782;9.932;2023-03-15T14:07:34;3.47;;;2.43;;
10645;SDS011;5371;49.782;9.932;2023-03-15T14:10:06;4.10;;;2.50;;
10645;SDS011;5371;49.782;9.932;2023-03-15T14:12:51;3.23;;;2.37;;
10645;SDS011;5371;49.782;9.932;2023-03-15T14:15:19;3.97;;;2.40;;
10645;SDS011;5371;49.782;9.932;2023-03-15T14:17:52;2.50;;;2.20;;
10645;SDS011;5371;49.782;9.932;2023-03-15T14:20:23;3.57;;;2.00;;
10645;SDS011;5371;49.782;9.932;2023-03-15T14:22:56;2.40;;;2.20;;
10645;SDS011;5371;49.782;9.932;2023-03-15T14:25:24;2.50;;;2.20;;
10645;SDS011;5371;49.782;9.932;2023-03-15T14:27:51;2.20;;;1.80;;
10645;SDS011;5371;49.782;9.932;2023-03-15T14:30:19;2.37;;;1.80;;
10645;SDS011;5371;49.782;9.932;2023-03-15T14:32:56;2.73;;;1.90;;
10645;SDS011;5371;49.782;9.932;2023-03-15T14:35:25;2.13;;;1.80;;
10645;SDS011;5371;49.782;9.932;2023-03-15T14:37:59;2.03;;;1.40;;
10645;SDS011;5371;49.782;9.932;2023-03-15T14:40:29;2.10;;;1.70;;
10645;SDS011;5371;49.782;9.932;2023-03-15T14:42:59;2.83;;;1.80;;
10645;SDS011;5371;49.782;9.932;2023-03-15T14:45:27;2.40;;;1.90;;
10645;SDS011;5371;49.782;9.932;2023-03-15T14:47:58;2.50;;;2.00;;
10645;SDS011;5371;49.782;9.932;2023-03-15T14:50:30;2.40;;;2.20;;
10645;SDS011;5371;49.782;9.932;2023-03-15T14:53:01;3.77;;;2.03;;
10645;SDS011;5371;49.782;9.932;2023-03-15T14:55:31;2.43;;;2.10;;
10645;SDS011;5371;49.782;9.932;2023-03-15T14:58:00;2.67;;;2.10;;
10645;SDS011;5371;49.782;9.932;2023-03-15T15:00:28;3.43;;;2.23;;
10645;SDS011;5371;49.782;9.932;2023-03-15T15:02:57;2.90;;;2.30;;
10645;SDS011;5371;49.782;9.932;2023-03-15T15:05:25;2.93;;;2.37;;
10645;SDS011;5371;49.782;9.932;2023-03-15T15:08:00;3.10;;;2.30;;
10645;SDS011;5371;49.782;9.932;2023-03-15T15:10:29;3.07;;;2.30;;
10645;SDS011;5371;49.782;9.932;2023-03-15T15:12:59;2.93;;;2.27;;
10645;SDS011;5371;49.782;9.932;2023-03-15T15:15:26;2.80;;;1.90;;
10645;SDS011;5371;49.782;9.932;2023-03-15T15:17:53;3.17;;;2.00;;
10645;SDS011;5371;49.782;9.932;2023-03-15T15:20:21;2.30;;;2.03;;
10645;SDS011;5371;49.782;9.932;2023-03-15T15:22:48;2.90;;;1.90;;
10645;SDS011;5371;49.782;9.932;2023-03-15T15:25:16;1.70;;;1.60;;
10645;SDS011;5371;49.782;9.932;2023-03-15T15:27:45;2.87;;;2.10;;
10645;SDS011;5371;49.782;9.932;2023-03-15T15:30:14;1.87;;;1.77;;
10645;SDS011;5371;49.782;9.932;2023-03-15T15:32:42;2.37;;;1.90;;
10645;SDS011;5371;49.782;9.932;2023-03-15T15:35:10;3.87;;;2.40;;
10645;SDS011;5371;49.782;9.932;2023-03-15T15:37:39;3.37;;;2.30;;
10645;SDS011;5371;49.782;9.932;2023-03-15T15:40:10;4.37;;;2.57;;
10645;SDS011;5371;49.782;9.932;2023-03-15T15:42:42;3.60;;;2.73;;
10645;SDS011;5371;49.782;9.932;2023-03-15T15:45:10;6.10;;;2.53;;